Terminal Aerodrome Forecast
Issued by NWS

Home | Current Version | Previous Version | Text Only | Print | Product List | Glossary On
Versions: 1 2 3 4 5 6 7 8 9 10 11 12 13 14 15 16 17 18 19
387
FTUS43 KIND 161720
TAFHUF
TAF
KHUF 161720Z 1618/1718 27008KT P6SM OVC025
     FM162200 27007KT P6SM OVC015
     FM170500 28006KT P6SM BKN045=

USA.gov is the U.S. government's official web portal to all federal, state and local government web resources and services.